createdAt,value
2018-04-06T00:00:43.796Z,79.20
2018-04-06T00:03:09.968Z,79.10
2018-04-06T00:05:36.187Z,79.10
2018-04-06T00:08:02.400Z,79.50
2018-04-06T00:10:28.608Z,79.60
2018-04-06T00:12:54.780Z,79.80
2018-04-06T00:15:20.977Z,79.90
2018-04-06T00:17:47.172Z,80.10
2018-04-06T00:20:14.104Z,80.40
2018-04-06T00:22:40.303Z,80.30
2018-04-06T00:25:06.525Z,81.30
2018-04-06T00:27:32.704Z,80.80
2018-04-06T00:29:58.895Z,80.90
2018-04-06T00:32:25.132Z,81.10
2018-04-06T00:34:51.364Z,81.10
2018-04-06T00:37:17.560Z,81.10
2018-04-06T00:39:43.760Z,81.00
2018-04-06T00:42:09.932Z,80.30
2018-04-06T00:44:36.100Z,79.70
2018-04-06T00:47:03.011Z,79.40
2018-04-06T00:49:29.205Z,79.40
2018-04-06T00:51:55.390Z,79.70
2018-04-06T00:54:22.334Z,79.20
2018-04-06T00:56:49.245Z,78.90
2018-04-06T00:59:15.428Z,78.90
2018-04-06T01:01:41.576Z,78.80
2018-04-06T01:04:07.807Z,78.90
2018-04-06T01:06:34.004Z,78.90
2018-04-06T01:09:00.951Z,79.20
2018-04-06T01:11:27.880Z,79.20
2018-04-06T01:13:54.835Z,79.40
2018-04-06T01:16:21.787Z,79.50
2018-04-06T01:18:48.716Z,79.80
2018-04-06T01:21:15.612Z,80.00
2018-04-06T01:23:41.828Z,80.00
2018-04-06T01:26:08.019Z,80.30
2018-04-06T01:28:34.934Z,81.10
2018-04-06T01:31:01.156Z,81.10
2018-04-06T01:33:27.379Z,81.50
2018-04-06T01:35:53.620Z,81.70
2018-04-06T01:38:19.818Z,81.80
2018-04-06T01:40:46.024Z,81.90
2018-04-06T01:43:12.224Z,82.30
2018-04-06T01:45:38.427Z,82.50
2018-04-06T01:48:04.664Z,83.60
2018-04-06T01:50:30.863Z,83.20
2018-04-06T01:52:57.108Z,83.30
2018-04-06T01:55:24.033Z,84.20
2018-04-06T01:57:50.257Z,84.10
2018-04-06T02:00:16.485Z,85.00
2018-04-06T02:02:42.696Z,85.20
2018-04-06T02:05:08.907Z,85.90
2018-04-06T02:07:35.856Z,85.80
2018-04-06T02:10:02.772Z,85.80
2018-04-06T02:12:29.002Z,85.80
2018-04-06T02:14:55.215Z,85.70
2018-04-06T02:17:21.430Z,85.70
2018-04-06T02:19:47.648Z,85.80
2018-04-06T02:22:13.892Z,86.00
2018-04-06T02:24:40.238Z,85.70
2018-04-06T02:27:06.301Z,86.00
2018-04-06T02:29:33.255Z,85.90
2018-04-06T02:31:59.468Z,85.80
2018-04-06T02:34:25.697Z,85.80
2018-04-06T02:36:52.648Z,86.50
2018-04-06T02:39:19.577Z,86.50
2018-04-06T02:41:45.744Z,86.40
2018-04-06T02:44:11.969Z,87.10
2018-04-06T02:46:38.172Z,86.80
2018-04-06T02:49:04.359Z,87.20
2018-04-06T02:51:30.564Z,87.60
2018-04-06T02:53:56.744Z,87.70
2018-04-06T02:56:22.918Z,87.70
2018-04-06T02:58:49.093Z,88.00
2018-04-06T03:01:15.319Z,87.80
2018-04-06T03:03:42.280Z,87.60
2018-04-06T03:06:09.216Z,88.10
2018-04-06T03:08:35.424Z,88.10
2018-04-06T03:11:01.604Z,88.40
2018-04-06T03:13:27.787Z,89.00
2018-04-06T03:15:53.951Z,89.80
2018-04-06T03:18:20.906Z,89.10
2018-04-06T03:20:47.112Z,89.00
2018-04-06T03:23:14.088Z,89.50
2018-04-06T03:25:40.254Z,88.70
2018-04-06T03:28:06.431Z,88.90
2018-04-06T03:30:32.669Z,88.90
2018-04-06T03:32:58.852Z,88.70
2018-04-06T03:35:25.048Z,89.30
2018-04-06T03:37:51.295Z,89.20
2018-04-06T03:40:17.448Z,89.60
2018-04-06T03:42:44.473Z,89.80
2018-04-06T03:45:10.680Z,89.70
2018-04-06T03:47:36.880Z,90.10
2018-04-06T03:50:03.085Z,90.10
2018-04-06T03:52:30.047Z,90.30
2018-04-06T03:54:56.228Z,90.30
2018-04-06T03:57:22.432Z,90.40
2018-04-06T03:59:48.623Z,90.30
2018-04-06T04:02:15.563Z,90.60
2018-04-06T04:04:42.513Z,90.60
2018-04-06T04:07:09.463Z,90.50
2018-04-06T04:09:35.673Z,90.40
2018-04-06T04:12:02.612Z,90.60
2018-04-06T04:14:28.844Z,90.60
2018-04-06T04:16:55.748Z,90.90
2018-04-06T04:19:21.953Z,90.70
2018-04-06T04:21:48.180Z,90.50
2018-04-06T04:24:14.383Z,90.40
2018-04-06T04:26:40.613Z,90.40
2018-04-06T04:29:07.552Z,90.50
2018-04-06T04:31:34.487Z,90.60
2018-04-06T04:34:00.675Z,90.60
2018-04-06T04:36:26.892Z,90.70
2018-04-06T04:38:53.096Z,91.00
2018-04-06T04:41:19.292Z,90.80
2018-04-06T04:43:45.470Z,90.90
2018-04-06T04:46:11.665Z,91.00
2018-04-06T04:48:37.856Z,91.10
2018-04-06T04:51:04.053Z,91.20
2018-04-06T04:53:30.256Z,91.20
2018-04-06T04:55:56.421Z,91.20
2018-04-06T04:58:22.645Z,91.20
2018-04-06T05:00:48.851Z,91.20
2018-04-06T05:03:30.408Z,91.30
2018-04-06T05:05:56.621Z,91.40
2018-04-06T05:08:22.827Z,91.30
2018-04-06T05:10:49.046Z,91.30
2018-04-06T05:13:15.224Z,91.20
2018-04-06T05:15:41.419Z,91.30
2018-04-06T05:18:07.577Z,91.40
2018-04-06T05:20:33.742Z,91.40
2018-04-06T05:22:59.956Z,91.40
2018-04-06T05:25:26.171Z,91.40
2018-04-06T05:27:53.124Z,91.20
2018-04-06T05:30:20.043Z,91.30
2018-04-06T05:32:46.205Z,91.20
2018-04-06T05:35:12.401Z,91.20
2018-04-06T05:37:38.606Z,91.10
2018-04-06T05:40:04.776Z,91.10
2018-04-06T05:42:31.750Z,91.20
2018-04-06T05:44:57.976Z,91.20
2018-04-06T05:47:24.172Z,91.20
2018-04-06T05:49:51.128Z,90.50
2018-04-06T05:52:18.084Z,90.40
2018-04-06T05:54:44.302Z,90.40
2018-04-06T05:57:10.526Z,90.40
2018-04-06T05:59:37.464Z,90.50
2018-04-06T06:02:04.437Z,90.50
2018-04-06T06:04:30.641Z,90.50
2018-04-06T06:06:57.595Z,90.60
2018-04-06T06:09:23.759Z,90.60
2018-04-06T06:11:49.928Z,90.50
2018-04-06T06:14:16.159Z,90.40
2018-04-06T06:16:42.360Z,90.40
2018-04-06T06:19:08.551Z,90.40
2018-04-06T06:21:34.748Z,90.40
2018-04-06T06:24:00.967Z,90.40
2018-04-06T06:26:27.189Z,90.30
2018-04-06T06:28:53.403Z,90.10
2018-04-06T06:31:19.628Z,90.00
2018-04-06T06:33:45.845Z,89.70
2018-04-06T06:36:12.025Z,88.60
2018-04-06T06:38:38.956Z,88.00
2018-04-06T06:41:05.164Z,87.90
2018-04-06T06:43:31.372Z,87.30
2018-04-06T06:45:57.567Z,86.90
2018-04-06T06:48:23.732Z,86.10
2018-04-06T06:50:49.933Z,85.60
2018-04-06T06:53:16.173Z,85.00
2018-04-06T06:55:42.400Z,84.90
2018-04-06T06:58:08.593Z,84.50
2018-04-06T07:00:35.527Z,83.60
2018-04-06T07:03:02.461Z,83.10
2018-04-06T07:05:28.707Z,83.00
2018-04-06T07:07:55.664Z,82.10
2018-04-06T07:10:22.600Z,81.50
2018-04-06T07:12:49.527Z,80.70
2018-04-06T07:15:15.724Z,80.70
2018-04-06T07:17:41.908Z,80.10
2018-04-06T07:20:08.820Z,80.00
2018-04-06T07:22:34.988Z,79.90
2018-04-06T07:25:01.155Z,79.50
2018-04-06T07:27:27.383Z,79.20
2018-04-06T07:29:53.568Z,78.90
2018-04-06T07:32:19.762Z,78.40
2018-04-06T07:34:45.967Z,77.70
2018-04-06T07:37:12.158Z,77.30
2018-04-06T07:39:38.340Z,77.50
2018-04-06T07:42:06.043Z,76.80
2018-04-06T07:44:32.238Z,76.70
2018-04-06T07:46:58.435Z,75.60
2018-04-06T07:49:24.667Z,75.80
2018-04-06T07:51:50.863Z,75.30
2018-04-06T07:54:17.075Z,75.00
2018-04-06T07:56:44.064Z,75.10
2018-04-06T07:59:10.272Z,75.10
2018-04-06T08:01:36.492Z,74.30
2018-04-06T08:04:02.690Z,73.70
2018-04-06T08:06:28.879Z,73.20
2018-04-06T08:08:55.059Z,73.70
2018-04-06T08:11:22.008Z,72.60
2018-04-06T08:13:48.989Z,71.60
2018-04-06T08:16:15.196Z,71.60
2018-04-06T08:18:41.396Z,71.60
2018-04-06T08:21:07.597Z,71.80
2018-04-06T08:23:33.820Z,72.90
2018-04-06T08:26:00.024Z,74.30
2018-04-06T08:28:26.224Z,73.50
2018-04-06T08:30:53.187Z,71.90
2018-04-06T08:33:19.405Z,71.90
2018-04-06T08:35:45.611Z,71.80
2018-04-06T08:38:11.798Z,70.30
2018-04-06T08:40:38.043Z,69.80
2018-04-06T08:43:04.259Z,68.90
2018-04-06T08:45:30.461Z,68.90
2018-04-06T08:47:56.660Z,68.20
2018-04-06T08:50:23.586Z,64.60
2018-04-06T08:52:49.807Z,64.50
2018-04-06T08:55:15.996Z,64.10
2018-04-06T08:57:42.209Z,63.20
2018-04-06T09:00:08.388Z,62.30
2018-04-06T09:02:34.565Z,62.00
2018-04-06T09:05:04.071Z,58.40
2018-04-06T09:07:30.301Z,58.60
2018-04-06T09:09:56.491Z,58.10
2018-04-06T09:12:22.715Z,57.10
2018-04-06T09:14:48.932Z,55.70
2018-04-06T09:17:15.152Z,55.30
2018-04-06T09:19:41.344Z,54.80
2018-04-06T09:22:07.516Z,52.60
2018-04-06T09:24:33.704Z,52.50
2018-04-06T09:26:59.896Z,52.80
2018-04-06T09:29:26.827Z,49.10
2018-04-06T09:31:53.025Z,49.10
2018-04-06T09:34:19.216Z,47.50
2018-04-06T09:36:45.435Z,46.70
2018-04-06T09:39:12.337Z,45.90
2018-04-06T09:41:38.560Z,45.90
2018-04-06T09:44:04.698Z,45.90
2018-04-06T09:46:30.928Z,45.20
2018-04-06T09:48:57.145Z,44.80
2018-04-06T09:51:23.377Z,44.30
2018-04-06T09:53:49.577Z,44.00
2018-04-06T09:56:15.786Z,43.70
2018-04-06T09:58:41.980Z,42.70
2018-04-06T10:01:08.159Z,42.80
2018-04-06T10:03:34.352Z,42.30
2018-04-06T10:06:01.292Z,40.40
2018-04-06T10:08:27.460Z,40.30
2018-04-06T10:10:53.711Z,39.20
2018-04-06T10:13:19.939Z,38.90
2018-04-06T10:15:46.143Z,38.20
2018-04-06T10:18:12.328Z,37.50
2018-04-06T10:20:42.433Z,36.90
2018-04-06T10:23:08.620Z,37.50
2018-04-06T10:25:34.805Z,38.10
2018-04-06T10:28:01.011Z,38.10
2018-04-06T10:30:27.207Z,36.60
2018-04-06T10:32:53.395Z,36.20
2018-04-06T10:35:20.352Z,35.90
2018-04-06T10:37:46.524Z,35.80
2018-04-06T10:40:12.715Z,34.20
2018-04-06T10:42:38.872Z,34.70
2018-04-06T10:45:05.116Z,35.40
2018-04-06T10:47:31.360Z,34.30
2018-04-06T10:49:57.563Z,34.10
2018-04-06T10:55:46.874Z,33.80
2018-04-06T10:58:26.802Z,33.80
2018-04-06T11:00:53.021Z,33.30
2018-04-06T11:03:19.317Z,33.60
2018-04-06T11:06:00.060Z,33.30
2018-04-06T11:08:26.256Z,33.30
2018-04-06T11:11:04.440Z,32.50
2018-04-06T11:13:54.925Z,32.20
2018-04-06T11:16:21.202Z,31.30
2018-04-06T11:18:47.373Z,31.30
2018-04-06T11:21:27.677Z,30.30
2018-04-06T11:24:06.271Z,30.30
2018-04-06T11:26:32.472Z,29.60
2018-04-06T11:29:06.276Z,29.40
2018-04-06T11:31:35.300Z,29.40
2018-04-06T11:34:01.467Z,29.30
2018-04-06T11:39:35.769Z,29.40
2018-04-06T11:42:01.989Z,29.10
2018-04-06T11:44:28.159Z,28.90
2018-04-06T11:46:55.864Z,29.10
2018-04-06T11:49:46.489Z,29.10
2018-04-06T11:52:12.656Z,28.70
2018-04-06T11:54:38.873Z,29.10
2018-04-06T11:57:05.051Z,29.30
2018-04-06T11:59:31.256Z,29.60
2018-04-06T12:01:57.457Z,29.00
2018-04-06T12:04:23.688Z,28.20
2018-04-06T12:06:49.848Z,28.20
2018-04-06T12:09:16.812Z,28.60
2018-04-06T12:11:42.991Z,28.60
2018-04-06T12:14:09.204Z,28.50
2018-04-06T12:16:35.425Z,28.60
2018-04-06T12:19:01.611Z,28.50
2018-04-06T12:21:28.534Z,28.30
2018-04-06T12:23:54.740Z,28.20
2018-04-06T12:26:20.956Z,28.50
2018-04-06T12:28:47.159Z,28.30
2018-04-06T12:31:13.375Z,28.30
2018-04-06T12:33:40.304Z,27.80
2018-04-06T12:36:07.234Z,27.50
2018-04-06T12:38:33.387Z,27.40
2018-04-06T12:41:00.308Z,26.90
2018-04-06T12:43:26.521Z,26.90
2018-04-06T12:45:52.770Z,26.90
2018-04-06T12:48:18.975Z,26.30
2018-04-06T12:50:45.175Z,26.20
2018-04-06T12:53:11.395Z,26.50
2018-04-06T12:55:37.619Z,26.10
2018-04-06T12:58:03.814Z,25.80
2018-04-06T13:00:30.043Z,25.60
2018-04-06T13:02:56.979Z,25.50
2018-04-06T13:05:23.156Z,25.50
2018-04-06T13:07:49.377Z,25.40
2018-04-06T13:10:38.528Z,25.40
2018-04-06T13:13:05.476Z,25.20
2018-04-06T13:15:32.443Z,25.00
2018-04-06T13:17:58.637Z,25.00
2018-04-06T13:20:49.885Z,24.30
2018-04-06T13:23:21.716Z,24.20
2018-04-06T13:25:48.640Z,24.60
2018-04-06T13:28:46.748Z,24.50
2018-04-06T13:31:12.956Z,24.30
2018-04-06T13:33:43.041Z,23.80
2018-04-06T13:36:09.256Z,22.90
2018-04-06T13:38:35.447Z,23.20
2018-04-06T13:41:03.816Z,22.70
2018-04-06T13:43:30.771Z,23.10
2018-04-06T13:45:57.715Z,23.20
2018-04-06T13:48:24.643Z,23.30
2018-04-06T13:50:51.601Z,23.70
2018-04-06T13:53:18.556Z,23.00
2018-04-06T13:55:44.797Z,23.00
2018-04-06T13:58:10.984Z,23.40
2018-04-06T14:00:37.227Z,23.00
2018-04-06T14:03:04.192Z,23.40
2018-04-06T14:05:30.406Z,23.30
2018-04-06T14:07:57.345Z,22.70
2018-04-06T14:10:24.270Z,23.50
2018-04-06T14:12:50.476Z,23.40
2018-04-06T14:15:16.676Z,23.20
2018-04-06T14:17:42.871Z,22.90
2018-04-06T14:20:09.834Z,23.10
2018-04-06T14:22:36.019Z,23.10
2018-04-06T14:25:02.259Z,23.00
2018-04-06T14:27:28.464Z,22.80
2018-04-06T14:29:54.706Z,23.20
2018-04-06T14:32:20.941Z,23.00
2018-04-06T14:34:47.172Z,22.60
2018-04-06T14:37:13.376Z,22.70
2018-04-06T14:39:39.560Z,22.70
2018-04-06T14:42:05.788Z,22.90
2018-04-06T14:44:32.722Z,22.70
2018-04-06T14:46:59.656Z,22.80
2018-04-06T14:49:25.851Z,22.70
2018-04-06T14:51:52.041Z,22.90
2018-04-06T14:54:18.236Z,22.80
2018-04-06T14:56:44.436Z,22.60
2018-04-06T14:59:10.652Z,22.80
2018-04-06T15:01:37.548Z,21.90
2018-04-06T15:04:04.492Z,22.10
2018-04-06T15:06:31.449Z,22.60
2018-04-06T15:08:58.388Z,22.40
2018-04-06T15:11:24.585Z,22.40
2018-04-06T15:13:50.782Z,22.50
2018-04-06T15:16:16.968Z,22.80
2018-04-06T15:18:43.900Z,23.60
2018-04-06T15:21:10.137Z,23.60
2018-04-06T15:23:36.339Z,24.00
2018-04-06T15:26:02.515Z,24.60
2018-04-06T15:28:28.701Z,24.10
2018-04-06T15:30:54.926Z,24.20
2018-04-06T15:33:21.107Z,24.30
2018-04-06T15:35:47.303Z,24.50
2018-04-06T15:38:13.510Z,24.80
2018-04-06T15:40:39.675Z,25.30
2018-04-06T15:43:06.605Z,25.70
2018-04-06T15:45:33.500Z,25.70
2018-04-06T15:47:59.776Z,25.60
2018-04-06T15:50:25.972Z,25.50
2018-04-06T15:52:52.148Z,25.70
2018-04-06T15:55:19.126Z,25.50
2018-04-06T15:57:46.075Z,25.80
2018-04-06T16:00:12.280Z,25.80
2018-04-06T16:02:38.500Z,25.60
2018-04-06T16:05:04.679Z,25.90
2018-04-06T16:07:30.900Z,26.10
2018-04-06T16:09:57.071Z,26.30
2018-04-06T16:12:24.000Z,26.10
2018-04-06T16:14:50.208Z,26.10
2018-04-06T16:17:16.423Z,26.10
2018-04-06T16:19:43.501Z,26.00
2018-04-06T16:22:09.708Z,26.20
2018-04-06T16:24:35.907Z,26.10
2018-04-06T16:27:02.081Z,26.20
2018-04-06T16:29:32.252Z,26.00
2018-04-06T16:31:58.467Z,26.30
2018-04-06T16:34:24.655Z,26.10
2018-04-06T16:36:50.847Z,26.10
2018-04-06T16:39:17.028Z,26.30
2018-04-06T16:41:43.229Z,26.20
2018-04-06T16:44:09.455Z,26.60
2018-04-06T16:46:35.652Z,27.00
2018-04-06T16:49:01.797Z,27.20
2018-04-06T16:51:28.090Z,27.40
2018-04-06T16:53:54.350Z,27.80
2018-04-06T16:56:20.544Z,28.00
2018-04-06T16:58:47.539Z,28.50
2018-04-06T17:01:13.699Z,28.50
2018-04-06T17:03:40.628Z,29.20
2018-04-06T17:06:06.820Z,29.20
2018-04-06T17:08:33.015Z,29.60
2018-04-06T17:10:59.924Z,30.00
2018-04-06T17:13:26.152Z,30.00
2018-04-06T17:15:52.372Z,30.40
2018-04-06T17:18:18.551Z,30.70
2018-04-06T17:20:44.719Z,31.00
2018-04-06T17:23:10.908Z,31.30
2018-04-06T17:25:37.215Z,31.90
2018-04-06T17:28:03.348Z,32.30
2018-04-06T17:30:30.283Z,33.90
2018-04-06T17:32:56.481Z,33.80
2018-04-06T17:35:22.676Z,34.40
2018-04-06T17:37:48.876Z,34.30
2018-04-06T17:40:15.787Z,34.50
2018-04-06T17:42:41.992Z,34.90
2018-04-06T17:45:08.187Z,35.80
2018-04-06T17:47:35.129Z,36.40
2018-04-06T17:50:02.042Z,36.80
2018-04-06T17:52:29.000Z,37.40
2018-04-06T17:54:55.193Z,37.40
2018-04-06T17:57:21.360Z,37.70
2018-04-06T17:59:48.332Z,38.90
2018-04-06T18:02:14.516Z,38.50
2018-04-06T18:04:40.687Z,39.20
2018-04-06T18:07:06.876Z,39.50
2018-04-06T18:09:33.072Z,39.50
2018-04-06T18:11:59.267Z,39.60
2018-04-06T18:14:26.216Z,39.90
2018-04-06T18:16:52.436Z,40.50
2018-04-06T18:19:19.385Z,40.50
2018-04-06T18:21:46.304Z,40.50
2018-04-06T18:24:12.492Z,40.50
2018-04-06T18:26:38.687Z,40.70
2018-04-06T18:29:05.592Z,41.30
2018-04-06T18:31:32.532Z,41.90
2018-04-06T18:33:58.739Z,41.90
2018-04-06T18:36:24.915Z,42.00
2018-04-06T18:38:51.868Z,42.60
2018-04-06T18:41:18.828Z,42.60
2018-04-06T18:43:45.032Z,42.50
2018-04-06T18:46:11.955Z,44.40
2018-04-06T18:48:38.144Z,44.10
2018-04-06T18:51:04.352Z,45.30
2018-04-06T18:53:30.600Z,45.70
2018-04-06T18:55:56.803Z,46.20
2018-04-06T18:58:23.727Z,47.80
2018-04-06T19:00:50.691Z,48.50
2018-04-06T19:03:17.632Z,48.20
2018-04-06T19:05:44.582Z,48.00
2018-04-06T19:08:11.504Z,48.30
2018-04-06T19:10:37.716Z,48.30
2018-04-06T19:13:03.928Z,48.40
2018-04-06T19:15:30.144Z,48.20
2018-04-06T19:17:56.344Z,48.20
2018-04-06T19:20:22.561Z,48.00
2018-04-06T19:22:49.499Z,48.60
2018-04-06T19:25:16.440Z,48.90
2018-04-06T19:27:43.396Z,48.60
2018-04-06T19:30:10.339Z,49.50
2018-04-06T19:32:37.304Z,49.80
2018-04-06T19:35:03.484Z,49.70
2018-04-06T19:37:29.681Z,50.20
2018-04-06T19:39:55.876Z,50.40
2018-04-06T19:42:22.869Z,50.70
2018-04-06T19:44:49.748Z,50.70
2018-04-06T19:47:15.956Z,50.70
2018-04-06T19:49:42.159Z,51.10
2018-04-06T19:52:08.359Z,51.70
2018-04-06T19:54:35.300Z,51.60
2018-04-06T19:57:02.224Z,52.00
2018-04-06T19:59:28.419Z,51.90
2018-04-06T20:01:54.580Z,51.80
2018-04-06T20:04:21.500Z,51.10
2018-04-06T20:06:49.178Z,50.90
2018-04-06T20:09:15.405Z,50.90
2018-04-06T20:11:41.628Z,50.90
2018-04-06T20:14:07.852Z,50.80
2018-04-06T20:16:34.044Z,50.50
2018-04-06T20:19:00.267Z,50.20
2018-04-06T20:21:26.468Z,50.40
2018-04-06T20:23:53.400Z,50.10
2018-04-06T20:26:19.568Z,50.10
2018-04-06T20:28:45.739Z,50.30
2018-04-06T20:31:11.959Z,50.40
2018-04-06T20:33:38.141Z,50.60
2018-04-06T20:36:04.323Z,51.10
2018-04-06T20:38:30.496Z,51.00
2018-04-06T20:40:56.712Z,51.30
2018-04-06T20:43:22.912Z,51.50
2018-04-06T20:45:49.091Z,51.70
2018-04-06T20:48:15.289Z,51.60
2018-04-06T20:50:42.196Z,51.30
2018-04-06T20:53:08.425Z,51.30
2018-04-06T20:55:34.587Z,51.50
2018-04-06T20:58:01.516Z,51.70
2018-04-06T21:00:29.196Z,52.10
2018-04-06T21:02:56.152Z,51.90
2018-04-06T21:05:23.072Z,51.80
2018-04-06T21:07:49.259Z,51.80
2018-04-06T21:10:15.448Z,51.80
2018-04-06T21:12:42.376Z,52.30
2018-04-06T21:15:29.592Z,52.20
2018-04-06T21:17:55.791Z,52.40
2018-04-06T21:20:22.015Z,52.40
2018-04-06T21:25:55.295Z,52.80
2018-04-06T21:28:21.524Z,52.80
2018-04-06T21:30:47.765Z,53.10
2018-04-06T21:33:22.283Z,53.30
2018-04-06T21:35:48.491Z,53.80
2018-04-06T21:38:22.316Z,53.90
2018-04-06T21:40:48.509Z,53.90
2018-04-06T21:43:14.728Z,54.30
2018-04-06T21:45:40.960Z,54.90
2018-04-06T21:48:07.183Z,54.90
2018-04-06T21:50:41.292Z,55.40
2018-04-06T21:53:07.508Z,55.60
2018-04-06T21:55:33.761Z,56.20
2018-04-06T21:58:00.011Z,55.90
2018-04-06T22:03:37.087Z,56.30
2018-04-06T22:06:03.309Z,56.40
2018-04-06T22:11:36.185Z,56.90
2018-04-06T22:14:02.384Z,57.20
2018-04-06T22:16:29.345Z,57.50
2018-04-06T22:19:18.009Z,57.50
2018-04-06T22:21:44.220Z,57.60
2018-04-06T22:24:10.428Z,57.80
2018-04-06T22:26:37.392Z,58.60
2018-04-06T22:29:03.608Z,58.60
2018-04-06T22:31:50.078Z,58.30
2018-04-06T22:34:24.587Z,58.30
2018-04-06T22:36:50.903Z,58.10
2018-04-06T22:39:30.788Z,57.90
2018-04-06T22:41:56.980Z,58.00
2018-04-06T22:44:23.296Z,58.20
2018-04-06T22:46:49.507Z,58.30
2018-04-06T22:49:26.205Z,58.70
2018-04-06T22:51:52.437Z,58.90
2018-04-06T22:54:18.627Z,58.90
2018-04-06T22:56:45.599Z,59.30
2018-04-06T22:59:15.601Z,59.30
2018-04-06T23:01:41.836Z,59.10
2018-04-06T23:04:21.936Z,59.20
2018-04-06T23:06:53.988Z,59.30
2018-04-06T23:09:41.752Z,59.50
2018-04-06T23:12:07.960Z,59.60
2018-04-06T23:14:34.172Z,59.90
2018-04-06T23:17:00.369Z,59.90
2018-04-06T23:19:26.585Z,59.90
2018-04-06T23:21:53.520Z,60.30
2018-04-06T23:24:19.721Z,60.30
2018-04-06T23:26:45.932Z,60.80
2018-04-06T23:29:12.165Z,60.80
2018-04-06T23:31:38.367Z,61.30
2018-04-06T23:34:04.613Z,61.80
2018-04-06T23:36:30.831Z,62.60
2018-04-06T23:38:57.059Z,62.90
2018-04-06T23:41:23.236Z,63.10
2018-04-06T23:43:49.462Z,63.40
2018-04-06T23:46:15.656Z,63.70
2018-04-06T23:48:41.855Z,64.00
2018-04-06T23:51:08.032Z,64.20
2018-04-06T23:53:34.215Z,64.20
2018-04-06T23:56:00.393Z,64.10
